High wind

Not for real navigation. The accuracy of this data is not assured See disclaimer for more information



ICAO NAME COUNTRY WIND Kt GUST Kt VIS m TEMP/DEW C BARO METAR
CWRU Solander Island Meteorological Canada 52 58 9999 7/0 29.92 CWRU 221000Z AUTO 11052G58KT 07/ RMK AO1 4PAST HR 6023 PK WND 11063/0932 SLP128 P0021 T0072 50124
ENFB Oslo / Fornebu Norway 42 0 9999 11/5 29.88 ENFB 221020Z AUTO 17042KT 9999NDV NCD 11/05 Q1012 W///S5
ENSF 39 0 9999 0/0 29.92 ENSF 221020Z AUTO 17039KT 9999NDV NCD ///// Q//// W///S5
CWWL Bonilla Island Meteorological Canada 39 47 9999 8/8 29.92 CWWL 221000Z AUTO 15039G47KT 08/08 RMK AO1 4PAST HR 8042 PK WND 16052/0945 SLP993 P0002 T00830075 50
ENHE Heidrun Norway 39 0 9999 10/5 29.83 ENHE 221020Z 22039KT CAVOK 10/05 Q1010 W///S4

Show more